Terminal Aerodrome Forecast
Issued by NWS

Home | Current Version | Previous Version | Text Only | Print | Product List | Glossary On
Versions: 1 2 3 4 5 6 7 8 9 10 11 12 13
000
FTUS46 KLOX 051700
TAFPMD
TAF
KPMD 051736Z 0518/0618 23015KT P6SM SKC
     FM051900 23017G25KT P6SM SKC
     FM052200 24024G34KT 6SM BLDU FEW060
     FM060200 23016G24KT P6SM FEW060
     FM060400 23016KT P6SM SKC=

USA.gov is the U.S. government's official web portal to all federal, state and local government web resources and services.